createdAt,value
2022-08-02T00:00:55.721Z,1.75
2022-08-02T00:03:24.531Z,1.70
2022-08-02T00:05:53.348Z,2.00
2022-08-02T00:08:21.280Z,2.03
2022-08-02T00:10:48.864Z,1.70
2022-08-02T00:13:16.301Z,1.60
2022-08-02T00:15:45.128Z,1.90
2022-08-02T00:18:12.740Z,1.80
2022-08-02T00:20:40.222Z,1.83
2022-08-02T00:23:07.675Z,1.50
2022-08-02T00:25:35.149Z,1.50
2022-08-02T00:28:12.392Z,1.70
2022-08-02T00:30:39.956Z,1.70
2022-08-02T00:33:09.020Z,1.73
2022-08-02T00:35:36.769Z,1.67
2022-08-02T00:38:08.392Z,1.85
2022-08-02T00:40:35.840Z,1.70
2022-08-02T00:43:06.789Z,1.70
2022-08-02T00:46:02.637Z,2.08
2022-08-02T00:48:23.417Z,1.63
2022-08-02T00:50:50.865Z,1.70
2022-08-02T00:53:18.248Z,1.80
2022-08-02T00:55:45.707Z,1.80
2022-08-02T00:58:13.377Z,1.65
2022-08-02T01:00:40.866Z,1.67
2022-08-02T01:03:08.281Z,1.90
2022-08-02T01:05:55.847Z,1.92
2022-08-02T01:08:29.434Z,1.70
2022-08-02T01:10:59.220Z,1.65
2022-08-02T01:13:26.898Z,1.50
2022-08-02T01:15:59.125Z,1.70
2022-08-02T01:18:28.726Z,1.88
2022-08-02T01:21:06.825Z,1.83
2022-08-02T01:23:42.883Z,1.70
2022-08-02T01:26:26.232Z,1.93
2022-08-02T01:28:59.354Z,1.50
2022-08-02T01:31:28.274Z,1.45
2022-08-02T01:33:59.892Z,1.52
2022-08-02T01:36:28.705Z,1.50
2022-08-02T01:38:57.228Z,1.50
2022-08-02T01:41:25.714Z,1.70
2022-08-02T01:43:56.498Z,1.60
2022-08-02T01:46:24.507Z,1.98
2022-08-02T01:48:53.352Z,1.80
2022-08-02T01:51:41.331Z,1.93
2022-08-02T01:54:10.639Z,1.88
2022-08-02T01:56:38.674Z,2.00
2022-08-02T01:59:08.731Z,1.83
2022-08-02T02:01:37.723Z,1.88
2022-08-02T02:04:05.565Z,2.17
2022-08-02T02:06:33.256Z,1.88
2022-08-02T02:09:01.137Z,1.70
2022-08-02T02:12:05.849Z,1.67
2022-08-02T02:14:21.073Z,1.83
2022-08-02T02:16:49.165Z,1.97
2022-08-02T02:19:21.400Z,2.20
2022-08-02T02:21:50.307Z,1.92
2022-08-02T02:24:18.130Z,1.90
2022-08-02T02:26:52.294Z,2.05
2022-08-02T02:29:22.892Z,1.73
2022-08-02T02:31:52.788Z,1.70
2022-08-02T02:34:26.121Z,1.98
2022-08-02T02:36:53.890Z,1.92
2022-08-02T02:39:23.078Z,1.67
2022-08-02T02:41:51.563Z,1.55
2022-08-02T02:44:20.333Z,1.90
2022-08-02T02:46:50.635Z,1.80
2022-08-02T02:49:18.952Z,1.70
2022-08-02T02:51:46.621Z,1.77
2022-08-02T02:54:32.389Z,1.73
2022-08-02T02:57:02.752Z,1.80
2022-08-02T02:59:30.394Z,2.00
2022-08-02T03:01:59.354Z,1.70
2022-08-02T03:04:36.034Z,1.90
2022-08-02T03:07:17.709Z,1.70
2022-08-02T03:09:47.281Z,1.70
2022-08-02T03:12:24.797Z,1.88
2022-08-02T03:14:54.800Z,1.50
2022-08-02T03:17:23.585Z,1.70
2022-08-02T03:19:51.164Z,1.50
2022-08-02T03:22:18.610Z,1.77
2022-08-02T03:24:46.135Z,1.90
2022-08-02T03:27:13.549Z,1.65
2022-08-02T03:29:41.280Z,1.80
2022-08-02T03:32:08.967Z,1.70
2022-08-02T03:34:38.005Z,1.60
2022-08-02T03:37:05.567Z,1.60
2022-08-02T03:39:33.418Z,1.83
2022-08-02T03:42:02.043Z,1.80
2022-08-02T03:44:29.548Z,2.00
2022-08-02T03:46:57.367Z,1.83
2022-08-02T03:49:25.221Z,1.77
2022-08-02T03:51:54.640Z,1.80
2022-08-02T03:54:23.113Z,1.70
2022-08-02T03:57:00.546Z,1.92
2022-08-02T03:59:28.010Z,2.10
2022-08-02T04:02:03.363Z,2.28
2022-08-02T04:04:31.006Z,2.10
2022-08-02T04:06:59.858Z,1.90
2022-08-02T04:09:27.322Z,1.90
2022-08-02T04:11:54.757Z,2.00
2022-08-02T04:14:22.385Z,2.03
2022-08-02T04:16:52.985Z,1.92
2022-08-02T04:19:22.947Z,2.30
2022-08-02T04:21:52.706Z,1.92
2022-08-02T04:24:24.972Z,1.90
2022-08-02T04:26:53.798Z,1.98
2022-08-02T04:29:21.677Z,2.20
2022-08-02T04:31:49.609Z,2.30
2022-08-02T04:34:17.171Z,2.70
2022-08-02T04:36:44.826Z,2.40
2022-08-02T04:39:12.389Z,2.33
2022-08-02T04:41:44.807Z,2.15
2022-08-02T04:44:12.304Z,2.20
2022-08-02T04:46:39.982Z,2.10
2022-08-02T04:49:07.605Z,2.03
2022-08-02T04:51:38.160Z,2.35
2022-08-02T04:54:10.325Z,2.05
2022-08-02T04:56:38.285Z,2.42
2022-08-02T04:59:07.404Z,2.72
2022-08-02T05:01:35.474Z,2.33
2022-08-02T05:04:02.927Z,2.70
2022-08-02T05:06:30.399Z,2.78
2022-08-02T05:08:58.218Z,2.83
2022-08-02T05:11:34.312Z,2.20
2022-08-02T05:14:04.041Z,2.90
2022-08-02T05:16:32.947Z,2.50
2022-08-02T05:19:01.109Z,2.83
2022-08-02T05:21:29.570Z,2.90
2022-08-02T05:23:57.229Z,3.03
2022-08-02T05:26:24.858Z,2.70
2022-08-02T05:28:52.338Z,2.90
2022-08-02T05:31:20.114Z,3.08
2022-08-02T05:33:48.940Z,2.90
2022-08-02T05:36:16.507Z,3.65
2022-08-02T05:38:49.694Z,3.47
2022-08-02T05:41:17.995Z,3.55
2022-08-02T05:43:45.643Z,3.50
2022-08-02T05:46:13.133Z,3.38
2022-08-02T05:48:40.622Z,3.42
2022-08-02T05:51:12.268Z,3.57
2022-08-02T05:53:59.195Z,3.58
2022-08-02T05:56:33.491Z,3.60
2022-08-02T05:59:04.367Z,3.47
2022-08-02T06:01:34.023Z,3.55
2022-08-02T06:04:01.846Z,3.87
2022-08-02T06:06:31.106Z,4.32
2022-08-02T06:09:00.530Z,4.43
2022-08-02T06:11:33.346Z,4.80
2022-08-02T06:14:01.274Z,4.30
2022-08-02T06:16:32.480Z,4.80
2022-08-02T06:19:01.126Z,5.15
2022-08-02T06:22:33.663Z,5.05
2022-08-02T06:24:19.015Z,5.60
2022-08-02T06:26:46.686Z,5.95
2022-08-02T06:29:15.060Z,7.27
2022-08-02T06:31:42.659Z,6.80
2022-08-02T06:34:12.820Z,8.00
2022-08-02T06:36:43.533Z,9.23
2022-08-02T06:39:15.427Z,9.80
2022-08-02T06:41:45.444Z,9.83
2022-08-02T06:44:44.832Z,11.02
2022-08-02T06:47:10.888Z,10.63
2022-08-02T06:49:51.894Z,10.23
2022-08-02T06:52:27.709Z,10.70
2022-08-02T06:54:56.243Z,11.87
2022-08-02T06:57:23.691Z,12.18
2022-08-02T06:59:51.108Z,13.05
2022-08-02T07:02:18.551Z,12.15
2022-08-02T07:04:46.020Z,11.90
2022-08-02T07:07:13.443Z,11.57
2022-08-02T07:09:56.401Z,11.80
2022-08-02T07:12:28.348Z,12.95
2022-08-02T07:14:55.745Z,12.82
2022-08-02T07:17:23.189Z,11.57
2022-08-02T07:19:50.638Z,11.37
2022-08-02T07:22:20.174Z,11.25
2022-08-02T07:24:49.205Z,10.80
2022-08-02T07:27:16.621Z,10.38
2022-08-02T07:29:44.978Z,9.82
2022-08-02T07:32:13.187Z,10.30
2022-08-02T07:34:42.445Z,10.05
2022-08-02T07:37:10.550Z,10.18
2022-08-02T07:39:54.367Z,8.18
2022-08-02T07:42:21.859Z,7.95
2022-08-02T07:44:49.411Z,7.60
2022-08-02T07:47:16.989Z,8.52
2022-08-02T07:49:44.749Z,8.27
2022-08-02T07:52:12.945Z,7.78
2022-08-02T07:54:40.576Z,7.78
2022-08-02T07:57:09.325Z,7.53
2022-08-02T07:59:36.754Z,7.35
2022-08-02T08:02:04.307Z,7.88
2022-08-02T08:04:31.801Z,8.73
2022-08-02T08:06:59.382Z,8.15
2022-08-02T08:09:26.864Z,7.33
2022-08-02T08:11:54.271Z,6.95
2022-08-02T08:14:23.101Z,6.88
2022-08-02T08:16:50.704Z,6.35
2022-08-02T08:19:18.090Z,7.85
2022-08-02T08:21:45.496Z,7.33
2022-08-02T08:24:12.947Z,7.70
2022-08-02T08:26:41.041Z,7.68
2022-08-02T08:29:08.474Z,8.05
2022-08-02T08:31:38.900Z,8.13
2022-08-02T08:34:06.654Z,8.60
2022-08-02T08:36:34.274Z,8.35
2022-08-02T08:39:01.712Z,7.75
2022-08-02T08:41:30.149Z,7.38
2022-08-02T08:43:59.138Z,7.70
2022-08-02T08:46:28.202Z,6.70
2022-08-02T08:49:00.234Z,7.07
2022-08-02T08:51:31.420Z,7.35
2022-08-02T08:54:03.041Z,6.13
2022-08-02T08:56:31.545Z,5.90
2022-08-02T08:58:59.016Z,7.17
2022-08-02T09:01:26.535Z,5.93
2022-08-02T09:04:15.201Z,5.75
2022-08-02T09:06:42.687Z,6.18
2022-08-02T09:09:10.139Z,5.90
2022-08-02T09:11:37.596Z,6.97
2022-08-02T09:14:05.707Z,6.25
2022-08-02T09:16:34.483Z,5.40
2022-08-02T09:19:02.541Z,5.30
2022-08-02T09:21:37.776Z,5.22
2022-08-02T09:24:16.839Z,5.70
2022-08-02T09:26:44.307Z,5.03
2022-08-02T09:29:12.088Z,5.30
2022-08-02T09:31:45.400Z,5.40
2022-08-02T09:34:20.268Z,5.32
2022-08-02T09:36:54.725Z,5.60
2022-08-02T09:39:23.721Z,5.35
2022-08-02T09:41:51.183Z,4.65
2022-08-02T09:44:18.652Z,4.75
2022-08-02T09:46:46.682Z,4.90
2022-08-02T09:49:16.505Z,5.03
2022-08-02T09:51:51.201Z,5.82
2022-08-02T09:54:19.936Z,4.72
2022-08-02T09:56:49.887Z,5.40
2022-08-02T09:59:18.258Z,4.65
2022-08-02T10:01:50.458Z,5.40
2022-08-02T10:04:21.663Z,4.93
2022-08-02T10:06:51.885Z,4.70
2022-08-02T10:09:19.470Z,4.38
2022-08-02T10:11:46.928Z,4.38
2022-08-02T10:14:14.923Z,5.30
2022-08-02T10:16:43.748Z,4.60
2022-08-02T10:19:11.565Z,4.88
2022-08-02T10:21:46.930Z,4.75
2022-08-02T10:24:16.339Z,4.78
2022-08-02T10:26:44.639Z,4.00
2022-08-02T10:29:13.042Z,4.40
2022-08-02T10:31:43.034Z,4.40
2022-08-02T10:34:12.003Z,4.18
2022-08-02T10:36:41.931Z,3.72
2022-08-02T10:39:09.811Z,4.40
2022-08-02T10:41:45.786Z,4.90
2022-08-02T10:44:24.970Z,4.20
2022-08-02T10:46:53.373Z,4.18
2022-08-02T10:49:39.322Z,4.57
2022-08-02T10:52:08.408Z,3.93
2022-08-02T10:54:40.454Z,3.90
2022-08-02T10:57:19.691Z,4.00
2022-08-02T10:59:47.267Z,3.90
2022-08-02T11:02:33.728Z,4.03
2022-08-02T11:05:09.141Z,3.50
2022-08-02T11:07:38.600Z,3.72
2022-08-02T11:10:24.841Z,3.60
2022-08-02T11:13:01.063Z,3.75
2022-08-02T11:15:29.530Z,3.17
2022-08-02T11:17:58.861Z,3.47
2022-08-02T11:20:26.751Z,3.13
2022-08-02T11:22:55.152Z,3.47
2022-08-02T11:26:01.000Z,3.05
2022-08-02T11:28:24.802Z,2.50
2022-08-02T11:30:57.460Z,2.30
2022-08-02T11:33:30.986Z,2.40
2022-08-02T11:36:02.123Z,2.10
2022-08-02T11:38:29.760Z,2.10
2022-08-02T11:40:57.744Z,2.22
2022-08-02T11:43:27.731Z,2.43
2022-08-02T11:45:56.519Z,2.30
2022-08-02T11:48:30.563Z,2.00
2022-08-02T11:51:05.641Z,2.28
2022-08-02T11:53:35.608Z,1.98
2022-08-02T11:56:03.038Z,2.00
2022-08-02T11:58:31.894Z,1.95
2022-08-02T12:00:59.684Z,2.00
2022-08-02T12:03:27.438Z,1.90
2022-08-02T12:06:05.665Z,1.63
2022-08-02T12:08:34.242Z,1.60
2022-08-02T12:11:02.532Z,1.40
2022-08-02T12:13:30.048Z,1.73
2022-08-02T12:16:19.072Z,2.00
2022-08-02T12:19:03.595Z,1.50
2022-08-02T12:21:31.151Z,1.60
2022-08-02T12:24:00.837Z,2.15
2022-08-02T12:26:29.205Z,1.60
2022-08-02T12:28:57.397Z,1.80
2022-08-02T12:31:39.439Z,1.67
2022-08-02T12:34:31.225Z,1.90
2022-08-02T12:37:00.464Z,1.80
2022-08-02T12:39:34.988Z,1.67
2022-08-02T12:42:02.776Z,1.70
2022-08-02T12:44:30.251Z,1.70
2022-08-02T12:47:03.938Z,1.83
2022-08-02T12:49:31.729Z,1.60
2022-08-02T12:52:11.553Z,1.58
2022-08-02T12:54:40.776Z,1.70
2022-08-02T12:57:12.441Z,2.05
2022-08-02T12:59:40.955Z,2.10
2022-08-02T13:02:11.354Z,2.05
2022-08-02T13:04:39.400Z,1.98
2022-08-02T13:07:07.202Z,2.08
2022-08-02T13:09:37.141Z,1.98
2022-08-02T13:12:05.028Z,1.87
2022-08-02T13:14:34.790Z,2.30
2022-08-02T13:17:05.766Z,1.70
2022-08-02T13:19:34.576Z,2.40
2022-08-02T13:22:03.895Z,2.20
2022-08-02T13:24:39.772Z,2.37
2022-08-02T13:27:20.876Z,1.95
2022-08-02T13:29:48.717Z,2.92
2022-08-02T13:32:16.760Z,1.92
2022-08-02T13:34:45.991Z,2.35
2022-08-02T13:37:13.790Z,2.03
2022-08-02T13:39:41.192Z,2.47
2022-08-02T13:42:08.794Z,2.20
2022-08-02T13:44:44.436Z,2.00
2022-08-02T13:47:11.997Z,2.10
2022-08-02T13:49:50.770Z,1.93
2022-08-02T13:52:20.792Z,2.25
2022-08-02T13:54:48.191Z,2.30
2022-08-02T13:57:15.628Z,2.28
2022-08-02T13:59:57.376Z,2.80
2022-08-02T14:02:26.255Z,2.53
2022-08-02T14:04:53.645Z,2.17
2022-08-02T14:07:22.785Z,2.65
2022-08-02T14:09:50.218Z,2.40
2022-08-02T14:12:17.750Z,2.70
2022-08-02T14:14:45.177Z,2.63
2022-08-02T14:17:13.411Z,2.45
2022-08-02T14:19:40.888Z,2.60
2022-08-02T14:22:21.179Z,2.30
2022-08-02T14:24:50.224Z,2.13
2022-08-02T14:27:17.735Z,2.00
2022-08-02T14:29:46.632Z,2.20
2022-08-02T14:32:14.355Z,2.20
2022-08-02T14:34:44.123Z,2.47
2022-08-02T14:37:11.547Z,2.03
2022-08-02T14:39:43.321Z,1.73
2022-08-02T14:42:28.093Z,1.88
2022-08-02T14:44:55.540Z,1.70
2022-08-02T14:47:22.976Z,1.80
2022-08-02T14:49:51.075Z,1.77
2022-08-02T14:52:18.772Z,1.80
2022-08-02T14:54:46.797Z,1.83
2022-08-02T14:57:14.562Z,1.67
2022-08-02T14:59:43.424Z,1.60
2022-08-02T15:02:13.452Z,1.30
2022-08-02T15:04:42.966Z,1.30
2022-08-02T15:07:11.143Z,1.85
2022-08-02T15:09:39.746Z,1.20
2022-08-02T15:12:07.749Z,1.63
2022-08-02T15:14:35.193Z,1.70
2022-08-02T15:17:04.028Z,1.40
2022-08-02T15:19:57.506Z,1.40
2022-08-02T15:22:19.983Z,1.35
2022-08-02T15:24:47.952Z,1.10
2022-08-02T15:27:15.682Z,1.30
2022-08-02T15:29:43.737Z,1.50
2022-08-02T15:32:13.092Z,1.65
2022-08-02T15:34:40.990Z,1.20
2022-08-02T15:37:08.635Z,1.60
2022-08-02T15:39:36.069Z,1.05
2022-08-02T15:42:03.592Z,0.97
2022-08-02T15:44:31.032Z,1.45
2022-08-02T15:46:58.602Z,1.30
2022-08-02T15:49:27.452Z,1.50
2022-08-02T15:51:55.362Z,1.38
2022-08-02T15:54:22.818Z,1.97
2022-08-02T15:56:50.911Z,1.58
2022-08-02T15:59:18.318Z,1.50
2022-08-02T16:01:47.981Z,1.75
2022-08-02T16:04:16.026Z,2.17
2022-08-02T16:06:45.112Z,1.60
2022-08-02T16:09:12.596Z,2.08
2022-08-02T16:11:40.321Z,2.33
2022-08-02T16:14:08.120Z,1.60
2022-08-02T16:16:36.237Z,1.83
2022-08-02T16:19:46.153Z,1.50
2022-08-02T16:21:54.352Z,1.35
2022-08-02T16:24:22.125Z,1.40
2022-08-02T16:26:49.693Z,1.60
2022-08-02T16:29:19.121Z,1.60
2022-08-02T16:31:47.377Z,1.23
2022-08-02T16:34:16.014Z,1.50
2022-08-02T16:36:43.475Z,1.48
2022-08-02T16:39:12.327Z,1.52
2022-08-02T16:41:50.936Z,1.40
2022-08-02T16:44:29.184Z,1.37
2022-08-02T16:47:00.911Z,1.27
2022-08-02T16:50:07.223Z,1.20
2022-08-02T16:52:19.176Z,1.40
2022-08-02T16:54:49.499Z,1.08
2022-08-02T16:57:19.558Z,1.20
2022-08-02T16:59:58.067Z,1.08
2022-08-02T17:02:26.157Z,0.77
2022-08-02T17:04:53.686Z,0.68
2022-08-02T17:08:16.675Z,0.57
2022-08-02T17:10:10.112Z,0.53
2022-08-02T17:12:37.963Z,0.70
2022-08-02T17:16:01.720Z,0.70
2022-08-02T17:17:53.868Z,0.73
2022-08-02T17:20:21.648Z,0.73
2022-08-02T17:22:51.806Z,1.50
2022-08-02T17:25:21.406Z,0.70
2022-08-02T17:27:55.463Z,0.82
2022-08-02T17:30:26.955Z,1.13
2022-08-02T17:32:57.624Z,0.80
2022-08-02T17:35:26.926Z,0.83
2022-08-02T17:38:11.528Z,0.90
2022-08-02T17:40:46.738Z,0.88
2022-08-02T17:43:14.504Z,1.15
2022-08-02T17:45:59.825Z,0.70
2022-08-02T17:48:49.271Z,0.80
2022-08-02T17:52:14.855Z,0.65
2022-08-02T17:54:04.311Z,0.90
2022-08-02T17:56:33.078Z,1.00
2022-08-02T17:59:12.828Z,1.45
2022-08-02T18:01:52.562Z,0.80
2022-08-02T18:04:20.626Z,1.10
2022-08-02T18:06:56.494Z,0.70
2022-08-02T18:09:24.150Z,0.85
2022-08-02T18:11:55.046Z,0.70
2022-08-02T18:14:22.723Z,0.77
2022-08-02T18:16:53.765Z,0.60
2022-08-02T18:19:21.274Z,0.80
2022-08-02T18:21:48.894Z,0.90
2022-08-02T18:24:16.437Z,0.60
2022-08-02T18:26:43.860Z,1.00
2022-08-02T18:29:12.671Z,0.70
2022-08-02T18:31:50.800Z,0.85
2022-08-02T18:34:19.334Z,0.98
2022-08-02T18:36:51.892Z,0.85
2022-08-02T18:39:19.300Z,0.87
2022-08-02T18:41:47.798Z,1.10
2022-08-02T18:44:18.926Z,1.23
2022-08-02T18:46:46.938Z,1.00
2022-08-02T18:49:22.145Z,0.70
2022-08-02T18:51:49.615Z,1.00
2022-08-02T18:54:17.120Z,0.80
2022-08-02T18:56:58.365Z,0.70
2022-08-02T18:59:27.226Z,0.70
2022-08-02T19:01:54.695Z,0.73
2022-08-02T19:04:27.483Z,0.60
2022-08-02T19:07:03.905Z,0.60
2022-08-02T19:09:34.883Z,0.52
2022-08-02T19:12:04.218Z,1.02
2022-08-02T19:14:32.959Z,0.70
2022-08-02T19:17:11.612Z,0.70
2022-08-02T19:19:48.111Z,0.65
2022-08-02T19:22:20.176Z,0.70
2022-08-02T19:24:51.563Z,0.65
2022-08-02T19:27:25.970Z,0.90
2022-08-02T19:32:59.461Z,0.60
2022-08-02T19:35:30.385Z,0.80
2022-08-02T19:38:06.017Z,0.75
2022-08-02T19:40:33.504Z,0.90
2022-08-02T19:44:21.065Z,0.83
2022-08-02T19:45:56.838Z,0.80
2022-08-02T19:48:25.491Z,1.05
2022-08-02T19:50:59.267Z,1.55
2022-08-02T19:53:48.188Z,0.80
2022-08-02T19:56:20.555Z,0.80
2022-08-02T19:58:49.312Z,0.75
2022-08-02T20:01:21.896Z,0.65
2022-08-02T20:03:53.063Z,0.70
2022-08-02T20:06:28.512Z,1.13
2022-08-02T20:08:59.393Z,0.97
2022-08-02T20:11:29.139Z,0.85
2022-08-02T20:14:05.345Z,0.80
2022-08-02T20:16:35.327Z,0.73
2022-08-02T20:19:03.121Z,0.93
2022-08-02T20:21:35.666Z,1.00
2022-08-02T20:24:06.636Z,1.10
2022-08-02T20:26:35.372Z,1.33
2022-08-02T20:29:03.263Z,1.00
2022-08-02T20:31:31.309Z,1.27
2022-08-02T20:34:00.365Z,0.90
2022-08-02T20:36:28.520Z,1.00
2022-08-02T20:38:55.981Z,1.23
2022-08-02T20:41:23.408Z,1.55
2022-08-02T20:44:04.293Z,1.15
2022-08-02T20:46:31.716Z,0.80
2022-08-02T20:49:06.771Z,1.10
2022-08-02T20:51:35.906Z,1.02
2022-08-02T20:54:03.492Z,1.10
2022-08-02T20:56:30.993Z,1.33
2022-08-02T20:59:03.706Z,1.57
2022-08-02T21:01:36.988Z,1.58
2022-08-02T21:04:06.182Z,1.30
2022-08-02T21:06:33.747Z,1.40
2022-08-02T21:09:01.171Z,1.27
2022-08-02T21:11:33.603Z,1.30
2022-08-02T21:14:07.900Z,1.80
2022-08-02T21:16:36.524Z,1.75
2022-08-02T21:19:08.089Z,1.60
2022-08-02T21:21:37.469Z,1.15
2022-08-02T21:24:05.427Z,1.50
2022-08-02T21:26:33.799Z,1.55
2022-08-02T21:29:03.887Z,1.40
2022-08-02T21:34:22.562Z,1.60
2022-08-02T21:36:55.104Z,2.33
2022-08-02T21:39:22.650Z,1.80
2022-08-02T21:41:50.300Z,1.60
2022-08-02T21:44:18.697Z,1.70
2022-08-02T21:46:46.571Z,1.63
2022-08-02T21:49:17.219Z,1.40
2022-08-02T21:51:49.575Z,1.58
2022-08-02T21:54:20.155Z,2.28
2022-08-02T21:56:48.816Z,1.52
2022-08-02T21:59:17.131Z,1.52
2022-08-02T22:01:52.864Z,1.67
2022-08-02T22:04:21.120Z,1.70
2022-08-02T22:06:49.917Z,1.50
2022-08-02T22:09:42.282Z,1.52
2022-08-02T22:12:06.575Z,1.65
2022-08-02T22:14:40.612Z,1.63
2022-08-02T22:17:13.486Z,1.63
2022-08-02T22:19:53.811Z,2.08
2022-08-02T22:22:27.951Z,2.03
2022-08-02T22:24:56.733Z,2.03
2022-08-02T22:28:35.421Z,1.55
2022-08-02T22:30:12.124Z,1.67
2022-08-02T22:32:57.327Z,1.58
2022-08-02T22:35:25.262Z,1.75
2022-08-02T22:38:16.435Z,1.58
2022-08-02T22:40:42.124Z,1.70
2022-08-02T22:43:09.563Z,1.53
2022-08-02T22:45:38.302Z,1.80
2022-08-02T22:48:07.309Z,1.40
2022-08-02T22:50:35.051Z,1.60
2022-08-02T22:53:04.188Z,1.75
2022-08-02T22:55:32.638Z,1.57
2022-08-02T22:58:00.257Z,1.63
2022-08-02T22:59:00.692Z,0.60
2022-08-02T22:59:02.910Z,1.33
2022-08-02T23:00:28.175Z,1.60
2022-08-02T23:02:55.570Z,1.40
2022-08-02T23:05:23.149Z,1.70
2022-08-02T23:07:50.967Z,1.50
2022-08-02T23:10:19.808Z,1.35
2022-08-02T23:12:47.236Z,1.70
2022-08-02T23:15:14.681Z,1.60
2022-08-02T23:17:59.615Z,1.75
2022-08-02T23:20:27.071Z,1.47
2022-08-02T23:22:55.706Z,1.58
2022-08-02T23:25:24.672Z,2.35
2022-08-02T23:27:52.143Z,2.08
2022-08-02T23:30:19.804Z,1.95
2022-08-02T23:32:47.736Z,1.87
2022-08-02T23:35:17.190Z,1.67
2022-08-02T23:37:59.831Z,2.17
2022-08-02T23:40:39.790Z,2.30
2022-08-02T23:43:14.271Z,2.08
2022-08-02T23:45:42.884Z,1.70
2022-08-02T23:48:10.353Z,1.52
2022-08-02T23:50:37.785Z,1.88
2022-08-02T23:53:05.243Z,1.88
2022-08-02T23:55:34.026Z,1.75
2022-08-02T23:58:01.471Z,2.00
